Time;durP1;ratioP1;P1;durP2;ratioP2;P2;SDS_P1;SDS_P2;PMS_P1;PMS_P2;Temp;Humidity;BMP_temperature;BMP_pressure;BME280_temperature;BME280_humidity;BME280_pressure;Samples;Min_cycle;Max_cycle;Signal;HPM_P1;HPM_P2
2022/11/24 00:01:17;;;;;;;14.55;4.03;;;;;;;8.90;100.00;100171.44;4994081;28;20389;-50
2022/11/24 00:03:50;;;;;;;12.15;3.75;;;;;;;8.90;100.00;100169.53;4995853;28;20068;-51
2022/11/24 00:06:17;;;;;;;17.15;4.70;;;;;;;8.92;100.00;100174.66;4979297;28;20046;-50
2022/11/24 00:08:45;;;;;;;10.13;3.75;;;;;;;8.88;100.00;100181.75;5004347;28;20039;-53
2022/11/24 00:11:24;;;;;;;20.23;4.38;;;;;;;8.85;100.00;100191.25;4983162;28;20057;-53
2022/11/24 00:13:52;;;;;;;13.23;4.20;;;;;;;8.81;100.00;100183.94;5002823;28;20046;-51
2022/11/24 00:16:28;;;;;;;14.30;4.05;;;;;;;8.82;100.00;100186.34;4993512;28;20514;-50
2022/11/24 00:18:57;;;;;;;13.55;3.92;;;;;;;8.83;100.00;100192.63;4980135;28;20057;-52
2022/11/24 00:21:26;;;;;;;13.70;4.28;;;;;;;8.82;100.00;100189.06;4974271;28;20421;-52
2022/11/24 00:23:54;;;;;;;13.88;4.00;;;;;;;8.82;100.00;100194.50;4968550;28;20045;-52
2022/11/24 00:26:33;;;;;;;10.13;3.47;;;;;;;8.82;100.00;100191.78;4964107;28;20089;-51
2022/11/24 00:29:04;;;;;;;14.45;4.07;;;;;;;8.81;100.00;100198.31;4989844;28;20048;-48
2022/11/24 00:31:37;;;;;;;13.05;3.88;;;;;;;8.86;100.00;100198.31;4972067;28;20502;-50
2022/11/24 00:34:09;;;;;;;15.90;4.50;;;;;;;8.87;100.00;100205.38;4974375;28;20058;-47
2022/11/24 00:36:37;;;;;;;15.48;4.18;;;;;;;8.87;100.00;100205.38;4991137;28;20045;-51
2022/11/24 00:39:10;;;;;;;16.60;4.50;;;;;;;8.85;100.00;100209.44;4974624;28;20436;-54
2022/11/24 00:41:38;;;;;;;12.25;3.95;;;;;;;8.82;100.00;100202.66;4988587;28;20043;-50
2022/11/24 00:44:06;;;;;;;16.95;4.55;;;;;;;8.82;100.00;100207.28;4977842;28;20047;-49
2022/11/24 00:46:33;;;;;;;15.60;4.15;;;;;;;8.82;100.00;100204.56;4977709;28;20050;-48
2022/11/24 00:49:01;;;;;;;14.77;4.10;;;;;;;8.79;100.00;100208.63;4973853;28;20493;-48
2022/11/24 00:51:29;;;;;;;11.35;3.80;;;;;;;8.79;100.00;100207.81;4987128;28;20039;-52
2022/11/24 00:53:58;;;;;;;13.15;4.22;;;;;;;8.76;100.00;100211.91;4977493;28;20098;-53
2022/11/24 00:56:26;;;;;;;13.95;4.07;;;;;;;8.79;100.00;100205.91;4973457;28;20070;-51
2022/11/24 00:58:54;;;;;;;13.35;3.85;;;;;;;8.77;100.00;100210.81;4969627;28;20516;-53
2022/11/24 01:01:24;;;;;;;12.23;4.07;;;;;;;8.80;100.00;100215.69;4991333;28;20042;-53
2022/11/24 01:03:54;;;;;;;13.95;3.97;;;;;;;8.78;100.00;100212.44;4977725;28;20039;-51
2022/11/24 01:06:27;;;;;;;14.73;4.40;;;;;;;8.76;100.00;100211.91;4972121;28;20409;-51
2022/11/24 01:08:56;;;;;;;14.02;3.92;;;;;;;8.75;100.00;100215.69;4974327;28;20042;-48
2022/11/24 01:14:23;;;;;;;11.00;3.78;;;;;;;8.73;100.00;100218.69;4977093;28;20497;-48
2022/11/24 01:16:51;;;;;;;13.38;4.15;;;;;;;8.72;100.00;100224.38;4977043;28;20109;-49
2022/11/24 01:19:18;;;;;;;15.25;3.58;;;;;;;8.72;100.00;100225.19;4973846;28;20502;-49
2022/11/24 01:21:46;;;;;;;12.77;3.55;;;;;;;8.78;100.00;100231.47;4992195;28;20089;-50
2022/11/24 01:24:14;;;;;;;15.23;3.80;;;;;;;8.83;100.00;100226.03;4978421;28;20098;-48
2022/11/24 01:26:42;;;;;;;12.27;4.28;;;;;;;8.80;100.00;100242.84;4976634;28;20059;-47
2022/11/24 01:29:10;;;;;;;12.35;4.13;;;;;;;8.80;100.00;100236.59;4978403;28;20512;-52
2022/11/24 01:31:38;;;;;;;10.50;3.50;;;;;;;8.74;100.00;100233.09;4987300;28;20105;-49
2022/11/24 01:34:06;;;;;;;12.35;3.47;;;;;;;8.77;100.00;100235.25;4976993;28;20046;-50
2022/11/24 01:36:33;;;;;;;13.05;4.20;;;;;;;8.76;100.00;100230.91;4978354;28;20073;-50
2022/11/24 01:39:01;;;;;;;11.95;3.92;;;;;;;8.78;100.00;100236.06;4982940;28;20046;-50
2022/11/24 01:41:28;;;;;;;14.07;3.88;;;;;;;8.77;100.00;100229.81;4969094;28;20563;-48
2022/11/24 01:43:56;;;;;;;11.18;3.58;;;;;;;8.76;100.00;100230.91;4976666;28;20042;-49
2022/11/24 01:46:44;;;;;;;12.77;4.05;;;;;;;8.77;100.00;100237.16;4969512;28;20042;-48
2022/11/24 01:49:21;;;;;;;12.57;4.20;;;;;;;8.73;100.00;100250.44;4969512;28;20446;-51
2022/11/24 01:52:04;;;;;;;14.20;3.80;;;;;;;8.74;100.00;100249.38;4943048;28;20035;-52
2022/11/24 01:54:35;;;;;;;10.48;3.50;;;;;;;8.73;100.00;100248.56;4976557;28;20050;-50
2022/11/24 01:57:29;;;;;;;14.32;3.92;;;;;;;8.74;100.00;100249.38;4982171;28;20042;-52
2022/11/24 02:00:03;;;;;;;15.55;3.90;;;;;;;8.68;100.00;100250.44;4976200;28;20042;-54
2022/11/24 02:02:42;;;;;;;15.20;4.13;;;;;;;8.66;100.00;100264.31;4980628;28;20061;-52
2022/11/24 02:05:23;;;;;;;14.75;4.07;;;;;;;8.65;100.00;100256.41;4978743;28;20437;-51
2022/11/24 02:07:53;;;;;;;14.02;4.30;;;;;;;8.65;100.00;100261.84;4971493;28;20516;-51
2022/11/24 02:10:22;;;;;;;11.02;3.67;;;;;;;8.68;100.00;100255.88;4959312;28;20047;-51
2022/11/24 02:12:51;;;;;;;15.60;4.30;;;;;;;8.70;100.00;100259.13;4987943;28;20053;-50
2022/11/24 02:15:20;;;;;;;13.80;3.80;;;;;;;8.75;100.00;100261.84;4964593;28;20081;-52
2022/11/24 02:17:47;;;;;;;10.77;3.38;;;;;;;8.78;100.00;100260.50;4971592;28;20043;-54
2022/11/24 02:20:15;;;;;;;18.88;4.03;;;;;;;8.74;100.00;100262.97;4975704;28;20038;-49
2022/11/24 02:22:55;;;;;;;14.18;4.20;;;;;;;8.74;100.00;100271.09;4977465;28;20046;-49
2022/11/24 02:25:40;;;;;;;10.80;3.75;;;;;;;8.74;100.00;100271.09;4977491;28;20038;-50
2022/11/24 02:28:12;;;;;;;14.27;3.88;;;;;;;8.81;100.00;100282.53;4976082;28;20055;-54
2022/11/24 02:30:40;;;;;;;13.23;3.67;;;;;;;8.77;100.00;100284.16;4973194;28;20039;-51
2022/11/24 02:33:09;;;;;;;12.85;3.95;;;;;;;8.73;100.00;100285.75;4966091;28;20047;-50
2022/11/24 02:35:37;;;;;;;16.35;4.50;;;;;;;8.68;100.00;100288.47;4990966;28;20045;-50
2022/11/24 02:38:05;;;;;;;15.32;4.15;;;;;;;8.63;100.00;100285.75;4981164;28;20046;-50
2022/11/24 02:40:32;;;;;;;11.98;4.00;;;;;;;8.66;100.00;100296.06;4966774;28;20043;-50
2022/11/24 02:43:06;;;;;;;14.55;4.28;;;;;;;8.63;100.00;100291.19;4981397;28;20498;-49
2022/11/24 02:45:34;;;;;;;14.13;4.13;;;;;;;8.62;100.00;100290.38;4977578;28;20042;-52
2022/11/24 02:48:02;;;;;;;12.82;4.03;;;;;;;8.57;100.00;100278.69;4978006;28;20047;-54
2022/11/24 02:50:29;;;;;;;13.40;3.85;;;;;;;8.57;100.00;100281.41;4975964;28;20445;-50
2022/11/24 02:52:57;;;;;;;14.52;4.20;;;;;;;8.53;100.00;100295.50;4979258;28;20042;-52
2022/11/24 02:55:24;;;;;;;19.27;5.60;;;;;;;8.52;100.00;100291.16;4981396;28;20050;-51
2022/11/24 02:57:52;;;;;;;14.90;4.47;;;;;;;8.56;100.00;100296.03;4974847;28;20042;-51
2022/11/24 03:00:20;;;;;;;11.50;3.78;;;;;;;8.52;100.00;100293.88;4975181;28;20038;-51
2022/11/24 03:02:48;;;;;;;15.02;4.22;;;;;;;8.55;100.00;100299.84;4959584;28;20054;-54
2022/11/24 03:05:16;;;;;;;13.75;3.88;;;;;;;8.54;100.00;100299.03;4978777;28;20122;-52
2022/11/24 03:07:43;;;;;;;13.30;4.35;;;;;;;8.56;100.00;100299.56;4975362;28;20042;-50
2022/11/24 03:10:11;;;;;;;14.73;4.35;;;;;;;8.59;100.00;100300.97;4975002;28;20042;-51
2022/11/24 03:12:39;;;;;;;16.05;4.38;;;;;;;8.55;100.00;100302.56;4974570;28;20050;-53
2022/11/24 03:15:07;;;;;;;15.63;4.53;;;;;;;8.56;100.00;100301.47;4977681;28;20050;-53
2022/11/24 03:17:34;;;;;;;15.57;4.28;;;;;;;8.56;100.00;100304.19;4945955;28;20047;-48
2022/11/24 03:20:03;;;;;;;15.88;4.55;;;;;;;8.53;100.00;100303.63;4991619;28;20039;-50
2022/11/24 03:22:32;;;;;;;13.73;4.20;;;;;;;8.54;100.00;100307.19;4983684;28;20390;-54
2022/11/24 03:24:59;;;;;;;18.17;4.60;;;;;;;8.56;100.00;100302.28;4999922;28;20092;-51
2022/11/24 03:27:27;;;;;;;15.10;4.57;;;;;;;8.58;100.00;100310.97;4982152;28;20098;-48
2022/11/24 03:29:54;;;;;;;16.17;4.25;;;;;;;8.61;100.00;100309.63;4989720;28;20030;-53
2022/11/24 03:32:22;;;;;;;17.35;4.60;;;;;;;8.61;100.00;100313.19;4982843;28;20042;-51
2022/11/24 03:34:50;;;;;;;17.35;4.70;;;;;;;8.60;100.00;100308.00;4976238;28;20102;-54
2022/11/24 03:37:17;;;;;;;14.20;4.10;;;;;;;8.61;100.00;100317.78;4988809;28;20451;-49
2022/11/24 03:39:45;;;;;;;17.27;4.55;;;;;;;8.59;100.00;100312.63;4978269;28;20402;-49
2022/11/24 03:42:13;;;;;;;19.75;4.38;;;;;;;8.58;100.00;100315.59;4965640;28;20560;-48
2022/11/24 03:44:40;;;;;;;16.85;4.38;;;;;;;8.60;100.00;100318.88;4971089;28;20125;-53
2022/11/24 03:47:09;;;;;;;14.60;4.25;;;;;;;8.66;100.00;100320.50;4963905;28;20046;-52
2022/11/24 03:49:37;;;;;;;17.35;5.20;;;;;;;8.66;100.00;100329.50;4976880;28;20089;-52
2022/11/24 03:52:05;;;;;;;20.40;5.32;;;;;;;8.68;100.00;100321.91;4958430;28;20126;-53
2022/11/24 03:54:35;;;;;;;22.48;5.05;;;;;;;8.68;100.00;100315.63;4985601;28;20105;-50
2022/11/24 03:57:02;;;;;;;14.35;4.68;;;;;;;8.71;100.00;100320.53;4978388;28;20042;-51
2022/11/24 03:59:30;;;;;;;14.65;4.18;;;;;;;8.71;100.00;100325.97;4988182;28;20097;-52
2022/11/24 04:01:57;;;;;;;15.38;4.57;;;;;;;8.72;100.00;100331.13;4978071;28;20042;-53
2022/11/24 04:04:25;;;;;;;20.17;5.00;;;;;;;8.74;100.00;100330.88;4974336;28;20109;-50
2022/11/24 04:06:53;;;;;;;15.32;4.43;;;;;;;8.75;100.00;100327.06;4983849;28;20038;-51
2022/11/24 04:09:20;;;;;;;14.55;4.60;;;;;;;8.74;100.00;100336.28;4983384;28;20094;-53
2022/11/24 04:14:34;;;;;;;;;;;;;;;8.79;100.00;100339.03;4974707;28;20039;-53
2022/11/24 04:17:03;;;;;;;16.45;4.85;;;;;;;8.73;100.00;100331.94;4973933;28;19922;-53
2022/11/24 04:19:30;;;;;;;12.77;4.18;;;;;;;8.71;100.00;100336.84;4980372;28;20062;-50
2022/11/24 04:21:58;;;;;;;13.75;4.07;;;;;;;8.74;100.00;100336.28;4974338;28;20522;-52
2022/11/24 04:24:26;;;;;;;15.27;4.68;;;;;;;8.77;100.00;100337.66;4973892;28;20457;-54
2022/11/24 04:26:53;;;;;;;13.48;4.07;;;;;;;8.73;100.00;100340.91;4964538;28;20058;-53
2022/11/24 04:29:21;;;;;;;15.43;4.63;;;;;;;8.73;100.00;100340.91;4962288;28;20042;-55
2022/11/24 04:31:48;;;;;;;15.75;4.45;;;;;;;8.73;100.00;100345.50;4963507;28;20101;-53
2022/11/24 04:34:16;;;;;;;15.80;4.43;;;;;;;8.76;100.00;100345.00;4959235;28;20135;-50
2022/11/24 04:36:43;;;;;;;18.45;4.90;;;;;;;8.78;100.00;100347.44;4954941;28;20031;-54
2022/11/24 04:39:11;;;;;;;13.45;4.32;;;;;;;8.77;100.00;100343.09;4956132;28;20055;-54
2022/11/24 04:41:52;;;;;;;12.27;3.83;;;;;;;8.80;100.00;100362.38;4960921;28;20049;-52
2022/11/24 04:44:20;;;;;;;12.25;3.45;;;;;;;8.82;100.00;100368.34;4969205;28;20093;-51
2022/11/24 04:46:47;;;;;;;8.73;2.88;;;;;;;8.82;100.00;100367.53;4954601;28;20086;-52
2022/11/24 04:49:15;;;;;;;8.18;2.55;;;;;;;8.84;100.00;100384.41;4954509;28;20146;-51
2022/11/24 04:51:43;;;;;;;5.60;2.05;;;;;;;8.74;100.00;100379.75;4967988;28;20047;-51
2022/11/24 04:54:12;;;;;;;9.30;2.67;;;;;;;8.72;100.00;100382.72;4954455;28;20106;-52
2022/11/24 04:56:41;;;;;;;8.23;2.38;;;;;;;8.65;100.00;100381.34;4966283;28;20458;-53
2022/11/24 04:59:15;;;;;;;8.07;2.22;;;;;;;8.58;100.00;100391.63;4962645;28;20097;-52
2022/11/24 05:01:43;;;;;;;6.95;2.13;;;;;;;8.48;100.00;100401.38;4982455;28;20043;-51
2022/11/24 05:04:13;;;;;;;8.23;2.58;;;;;;;8.38;100.00;100409.44;4962729;28;20058;-49
2022/11/24 05:06:41;;;;;;;7.13;2.30;;;;;;;8.27;100.00;100419.44;4970527;28;20566;-52
2022/11/24 05:09:12;;;;;;;6.18;2.30;;;;;;;8.22;100.00;100410.41;4959828;28;20114;-51
2022/11/24 05:11:40;;;;;;;7.50;2.42;;;;;;;8.21;100.00;100411.50;4970838;28;20486;-55
2022/11/24 05:14:07;;;;;;;7.65;2.42;;;;;;;8.22;100.00;100413.94;4970705;28;20125;-52
2022/11/24 05:16:36;;;;;;;5.05;2.10;;;;;;;8.35;100.00;100418.13;4995637;28;20517;-50
2022/11/24 05:19:04;;;;;;;9.50;2.55;;;;;;;8.42;100.00;100420.59;4989852;28;20395;-51
2022/11/24 05:21:32;;;;;;;7.88;2.45;;;;;;;8.39;100.00;100427.34;4968447;28;20129;-51
2022/11/24 05:23:59;;;;;;;8.43;2.40;;;;;;;8.42;100.00;100429.59;4990936;28;20058;-52
2022/11/24 05:26:27;;;;;;;7.22;2.83;;;;;;;8.42;100.00;100426.03;4984882;28;20043;-54
2022/11/24 05:28:55;;;;;;;10.85;3.60;;;;;;;8.41;100.00;100425.22;4966674;28;20043;-54
2022/11/24 05:31:23;;;;;;;10.07;2.95;;;;;;;8.43;100.00;100433.91;4989147;28;20054;-53
2022/11/24 05:33:50;;;;;;;12.32;3.10;;;;;;;8.44;100.00;100435.56;4983444;28;20131;-54
2022/11/24 05:39:04;;;;;;;;;;;;;;;8.46;100.00;100436.09;4980470;28;20042;-50
2022/11/24 05:41:31;;;;;;;13.25;3.28;;;;;;;8.50;100.00;100445.38;4988171;28;20025;-53
2022/11/24 05:44:00;;;;;;;6.88;2.88;;;;;;;8.51;100.00;100436.16;4976396;28;20054;-50
2022/11/24 05:46:27;;;;;;;9.48;3.03;;;;;;;8.52;100.00;100448.63;4976443;28;20085;-52
2022/11/24 05:48:55;;;;;;;12.25;3.50;;;;;;;8.51;100.00;100452.44;4977486;28;20050;-50
2022/11/24 05:51:23;;;;;;;10.27;3.10;;;;;;;8.49;100.00;100457.31;4979685;28;20069;-52
2022/11/24 05:53:50;;;;;;;10.30;3.00;;;;;;;8.50;100.00;100458.94;4976491;28;20039;-50
2022/11/24 05:56:18;;;;;;;10.65;3.30;;;;;;;8.50;100.00;100469.81;4972528;28;20093;-52
2022/11/24 05:58:45;;;;;;;11.20;3.08;;;;;;;8.49;100.00;100476.31;4980962;28;20050;-51
2022/11/24 06:01:13;;;;;;;9.15;3.05;;;;;;;8.51;100.00;100478.75;4989935;28;20108;-52
2022/11/24 06:03:41;;;;;;;13.02;3.47;;;;;;;8.54;100.00;100483.69;5015119;28;20042;-51
2022/11/24 06:06:09;;;;;;;12.02;4.10;;;;;;;8.51;100.00;100484.19;5014714;28;20045;-51
2022/11/24 06:08:36;;;;;;;10.65;3.40;;;;;;;8.51;100.00;100489.63;4987401;28;20055;-51
2022/11/24 06:11:16;;;;;;;11.88;3.28;;;;;;;8.54;100.00;100486.41;4975864;28;20127;-49
2022/11/24 06:13:45;;;;;;;12.43;4.20;;;;;;;8.51;100.00;100495.88;4996704;28;20066;-50
2022/11/24 06:16:14;;;;;;;11.73;3.63;;;;;;;8.52;100.00;100492.09;4981133;28;20126;-50
2022/11/24 06:18:41;;;;;;;14.02;3.67;;;;;;;8.52;100.00;100494.81;4992623;28;20031;-52
2022/11/24 06:21:09;;;;;;;11.18;3.10;;;;;;;8.53;100.00;100498.31;4979028;28;20121;-52
2022/11/24 06:23:39;;;;;;;13.27;3.40;;;;;;;8.57;100.00;100504.06;4647132;28;9999907;-52
2022/11/24 06:26:07;;;;;;;15.00;4.55;;;;;;;8.51;100.00;100512.19;4996182;28;20043;-51
2022/11/24 06:28:35;;;;;;;11.43;4.03;;;;;;;8.48;100.00;100520.84;4985850;28;20054;-50
2022/11/24 06:31:04;;;;;;;10.60;3.53;;;;;;;8.51;100.00;100520.34;4977957;28;20038;-53
2022/11/24 06:33:33;;;;;;;6.25;2.28;;;;;;;8.60;100.00;100525.25;4991870;28;20124;-49
2022/11/24 06:36:06;;;;;;;8.43;3.15;;;;;;;8.82;100.00;100539.50;4943520;28;20102;-51
2022/11/24 06:38:35;;;;;;;11.75;3.45;;;;;;;8.74;100.00;100537.28;4981638;28;20051;-51
2022/11/24 06:41:21;;;;;;;9.23;3.00;;;;;;;8.66;100.00;100537.78;4977330;28;20094;-49
2022/11/24 06:43:48;;;;;;;8.32;3.10;;;;;;;8.73;100.00;100541.06;4973898;28;20050;-51
2022/11/24 06:46:16;;;;;;;13.00;3.40;;;;;;;8.66;100.00;100551.34;4990032;28;20042;-49
2022/11/24 06:48:44;;;;;;;13.90;4.22;;;;;;;8.64;100.00;100553.53;4984403;28;20481;-50
2022/11/24 06:51:12;;;;;;;10.95;3.60;;;;;;;8.70;100.00;100556.00;4973993;28;20054;-50
2022/11/24 06:53:40;;;;;;;12.43;3.47;;;;;;;8.64;100.00;100564.41;4955283;28;20093;-50
2022/11/24 06:56:12;;;;;;;8.68;3.28;;;;;;;8.63;100.00;100576.31;4985571;28;20047;-56
2022/11/24 06:58:45;;;;;;;10.47;4.53;;;;;;;8.57;100.00;100583.63;4985351;28;20106;-52
2022/11/24 07:01:24;;;;;;;11.98;3.70;;;;;;;8.63;100.00;100587.19;4983832;28;20039;-51
2022/11/24 07:03:53;;;;;;;10.23;2.63;;;;;;;8.67;100.00;100596.47;4979386;28;20062;-50
2022/11/24 07:06:22;;;;;;;9.05;3.63;;;;;;;8.65;100.00;100599.44;4971692;28;20097;-52
2022/11/24 07:08:50;;;;;;;11.98;3.13;;;;;;;8.59;100.00;100605.91;4957425;28;20572;-52
2022/11/24 07:11:21;;;;;;;15.55;4.45;;;;;;;8.55;100.00;100612.13;4987810;28;20081;-52
2022/11/24 07:13:50;;;;;;;9.27;3.45;;;;;;;8.57;100.00;100620.84;4994555;28;20045;-51
2022/11/24 07:16:25;;;;;;;9.18;3.00;;;;;;;8.58;100.00;100617.03;4983569;28;20061;-50
2022/11/24 07:18:54;;;;;;;8.48;2.60;;;;;;;8.51;100.00;100625.38;4990953;28;20046;-53
2022/11/24 07:21:22;;;;;;;10.00;3.00;;;;;;;8.47;100.00;100630.53;4987198;28;20497;-50
2022/11/24 07:23:51;;;;;;;7.30;2.72;;;;;;;8.43;100.00;100636.72;4992327;28;20077;-52
2022/11/24 07:26:21;;;;;;;9.75;2.63;;;;;;;8.43;100.00;100644.88;4987078;28;20081;-54
2022/11/24 07:28:49;;;;;;;10.00;3.20;;;;;;;8.46;100.00;100644.34;4962121;28;20054;-51
2022/11/24 07:31:23;;;;;;;10.75;2.95;;;;;;;8.45;100.00;100648.16;4972293;28;20042;-50
2022/11/24 07:33:53;;;;;;;8.13;2.78;;;;;;;8.44;100.00;100657.38;4982694;28;20045;-49
2022/11/24 07:36:21;;;;;;;8.75;2.65;;;;;;;8.43;100.00;100651.13;4973794;28;20533;-49
2022/11/24 07:38:49;;;;;;;8.13;2.60;;;;;;;8.46;100.00;100655.22;4961062;28;20039;-49
2022/11/24 07:41:18;;;;;;;11.60;3.55;;;;;;;8.47;100.00;100654.97;4971418;28;20051;-49
2022/11/24 07:43:46;;;;;;;10.23;3.03;;;;;;;8.46;100.00;100660.66;4996348;28;20056;-50
2022/11/24 07:46:16;;;;;;;10.23;3.35;;;;;;;8.44;100.00;100671.78;4977499;28;20501;-49
2022/11/24 07:48:44;;;;;;;5.97;2.47;;;;;;;8.46;100.00;100676.94;5012158;28;20108;-51
2022/11/24 07:51:12;;;;;;;8.65;2.80;;;;;;;8.45;100.00;100681.56;4998899;28;20050;-50
2022/11/24 07:53:39;;;;;;;8.90;2.78;;;;;;;8.53;100.00;100689.22;5013295;28;20050;-51
2022/11/24 07:56:08;;;;;;;9.10;2.65;;;;;;;8.51;100.00;100685.13;5013172;28;20053;-52
2022/11/24 07:58:37;;;;;;;12.02;2.95;;;;;;;8.56;100.00;100687.06;4999427;28;20048;-50
2022/11/24 08:01:12;;;;;;;8.15;2.90;;;;;;;8.51;100.00;100696.81;5012926;28;20046;-51
2022/11/24 08:03:40;;;;;;;9.82;3.28;;;;;;;8.53;100.00;100704.69;4977035;28;20045;-52
2022/11/24 08:06:08;;;;;;;7.05;2.70;;;;;;;8.56;100.00;100708.78;4992143;28;20540;-48
2022/11/24 08:08:54;;;;;;;;;;;;;;;8.60;100.00;100701.78;4978921;28;20400;-48
2022/11/24 08:11:21;;;;;;;11.27;3.30;;;;;;;8.59;100.00;100709.13;4975722;28;20300;-47
2022/11/24 08:13:49;;;;;;;12.63;3.20;;;;;;;8.58;100.00;100723.75;4976377;28;20445;-47
2022/11/24 08:16:18;;;;;;;9.45;3.00;;;;;;;8.53;100.00;100726.41;5003784;28;20046;-48
2022/11/24 08:18:53;;;;;;;10.88;3.20;;;;;;;8.55;100.00;100728.91;4995710;28;20454;-49
2022/11/24 08:21:22;;;;;;;10.73;3.28;;;;;;;8.52;100.00;100731.03;5010426;28;20485;-49
2022/11/24 08:23:54;;;;;;;10.88;3.55;;;;;;;8.52;100.00;100732.94;4978667;28;20038;-50
2022/11/24 08:26:23;;;;;;;7.55;2.97;;;;;;;8.51;100.00;100740.28;4985937;28;20039;-48
2022/11/24 08:28:58;;;;;;;10.43;3.33;;;;;;;8.53;100.00;100743.53;4964756;28;20051;-49
2022/11/24 08:31:31;;;;;;;11.02;3.00;;;;;;;8.61;100.00;100750.41;4996268;28;20053;-48
2022/11/24 08:34:01;;;;;;;11.60;3.70;;;;;;;8.63;100.00;100752.84;5006899;28;20045;-53
2022/11/24 08:36:28;;;;;;;9.30;3.50;;;;;;;8.60;100.00;100762.34;4980839;28;20042;-51
2022/11/24 08:38:58;;;;;;;11.18;3.35;;;;;;;8.57;100.00;100764.75;5013620;28;20053;-50
2022/11/24 08:41:26;;;;;;;10.98;3.42;;;;;;;8.62;100.00;100765.63;5007778;28;20042;-52
2022/11/24 08:43:54;;;;;;;12.32;3.60;;;;;;;8.58;100.00;100766.38;4986646;28;20038;-51
2022/11/24 08:46:22;;;;;;;12.48;3.80;;;;;;;8.66;100.00;100774.06;4977993;28;20058;-50
2022/11/24 08:48:52;;;;;;;12.93;3.72;;;;;;;8.69;100.00;100774.38;5012987;28;20094;-49
2022/11/24 08:51:22;;;;;;;11.68;3.50;;;;;;;8.68;100.00;100789.06;4989507;28;20497;-50
2022/11/24 08:53:57;;;;;;;15.20;4.15;;;;;;;8.74;100.00;100792.63;5013212;28;20050;-52
2022/11/24 08:56:29;;;;;;;13.77;3.72;;;;;;;8.76;100.00;100790.50;5003968;28;20038;-52
2022/11/24 08:58:57;;;;;;;11.10;3.50;;;;;;;8.70;100.00;100792.31;4982966;28;20060;-52
2022/11/24 09:01:25;;;;;;;10.90;3.28;;;;;;;8.63;100.00;100797.13;5009756;28;20516;-50
2022/11/24 09:03:53;;;;;;;9.15;3.05;;;;;;;8.64;100.00;100798.78;5002783;28;20038;-51
2022/11/24 09:06:23;;;;;;;10.93;3.42;;;;;;;8.66;100.00;100798.50;5009164;28;20046;-50
2022/11/24 09:08:53;;;;;;;8.95;3.35;;;;;;;8.67;100.00;100790.13;5003576;28;20029;-52
2022/11/24 09:11:21;;;;;;;8.55;3.00;;;;;;;8.72;100.00;100805.66;5005017;28;20418;-51
2022/11/24 09:13:49;;;;;;;11.60;3.42;;;;;;;8.65;100.00;100815.91;4982760;28;20514;-50
2022/11/24 09:16:22;;;;;;;8.25;3.72;;;;;;;8.66;100.00;100810.22;4982850;28;20046;-51
2022/11/24 09:18:58;;;;;;;11.20;3.20;;;;;;;8.66;100.00;100815.66;5013673;28;20457;-51
2022/11/24 09:21:26;;;;;;;14.15;3.30;;;;;;;8.69;100.00;100819.75;4989259;28;20038;-51
2022/11/24 09:23:54;;;;;;;13.25;4.28;;;;;;;8.85;100.00;100821.56;5009407;28;20045;-49
2022/11/24 09:26:28;;;;;;;12.82;3.80;;;;;;;8.80;100.00;100824.19;4992982;28;20042;-50
2022/11/24 09:28:56;;;;;;;13.88;3.80;;;;;;;8.73;100.00;100823.56;4989874;28;20030;-49
2022/11/24 09:31:26;;;;;;;12.50;3.75;;;;;;;8.78;100.00;100837.25;4960606;28;20117;-53
2022/11/24 09:33:54;;;;;;;15.75;3.80;;;;;;;8.94;100.00;100841.72;4970822;28;20046;-49
2022/11/24 09:36:22;;;;;;;12.77;3.55;;;;;;;8.78;100.00;100839.94;4977056;28;20043;-53
2022/11/24 09:38:50;;;;;;;10.80;3.50;;;;;;;8.69;100.00;100842.28;4960221;28;20058;-53
2022/11/24 09:41:26;;;;;;;12.95;3.72;;;;;;;8.68;100.00;100856.13;4977650;28;20046;-51
2022/11/24 09:44:01;;;;;;;13.63;3.70;;;;;;;8.65;100.00;100851.19;4976791;28;20035;-50
2022/11/24 09:46:58;;;;;;;13.07;3.42;;;;;;;8.76;100.00;100852.97;4991139;28;20050;-51
2022/11/24 09:49:38;;;;;;;14.07;4.32;;;;;;;8.80;100.00;100855.97;4990312;28;20046;-49
2022/11/24 09:52:10;;;;;;;12.40;3.75;;;;;;;8.80;100.00;100855.97;4967418;28;20057;-51
2022/11/24 09:54:45;;;;;;;12.30;3.47;;;;;;;8.82;100.00;100865.50;4976730;28;20638;-50
2022/11/24 09:57:14;;;;;;;15.40;3.60;;;;;;;8.85;100.00;100877.75;4994141;28;20046;-53
2022/11/24 09:59:42;;;;;;;12.88;3.78;;;;;;;8.93;100.00;100872.72;4993682;28;20057;-52
2022/11/24 10:02:11;;;;;;;15.18;4.13;;;;;;;9.02;100.00;100874.94;4976156;28;20466;-51
2022/11/24 10:04:42;;;;;;;15.98;4.72;;;;;;;9.13;100.00;100882.16;4968706;28;20058;-51
2022/11/24 10:07:41;;;;;;;14.90;4.45;;;;;;;9.26;100.00;100876.31;4957947;28;20042;-50
2022/11/24 10:10:17;;;;;;;12.48;4.40;;;;;;;9.15;100.00;100880.00;4975718;28;20051;-51
2022/11/24 10:13:24;;;;;;;10.23;3.83;;;;;;;9.13;100.00;100882.16;4967189;28;20050;-50
2022/11/24 10:16:09;;;;;;;16.58;3.90;;;;;;;9.14;100.00;100898.22;4967954;28;20041;-52
2022/11/24 10:18:40;;;;;;;19.27;4.50;;;;;;;9.24;100.00;100900.22;4972169;28;20058;-50
2022/11/24 10:21:21;;;;;;;13.60;4.45;;;;;;;9.26;100.00;100906.22;4976032;28;20051;-48
2022/11/24 10:23:54;;;;;;;16.83;5.10;;;;;;;9.43;100.00;100897.09;4973347;28;20039;-51
2022/11/24 10:26:41;;;;;;;12.23;3.58;;;;;;;9.28;100.00;100901.31;4970595;28;20497;-46
2022/11/24 10:29:19;;;;;;;18.60;4.32;;;;;;;9.33;100.00;100914.13;4994872;28;20042;-50
2022/11/24 10:31:50;;;;;;;11.52;3.90;;;;;;;9.37;100.00;100910.66;4986832;28;20042;-49
2022/11/24 10:34:34;;;;;;;14.90;4.40;;;;;;;9.31;100.00;100903.53;4975789;28;20042;-51
2022/11/24 10:37:13;;;;;;;19.17;4.85;;;;;;;9.44;100.00;100907.72;4967873;28;20069;-49
2022/11/24 10:40:07;;;;;;;18.13;4.72;;;;;;;9.32;100.00;100913.31;4975580;28;20034;-51
2022/11/24 10:42:53;;;;;;;17.35;4.25;;;;;;;9.30;100.00;100920.09;4981357;28;20039;-50
2022/11/24 10:45:21;;;;;;;16.02;5.38;;;;;;;9.28;100.00;100928.50;4975790;28;20039;-48
2022/11/24 10:47:49;;;;;;;19.95;5.30;;;;;;;9.20;100.00;100931.69;4971938;28;20116;-47
2022/11/24 10:50:35;;;;;;;16.65;4.78;;;;;;;9.11;100.00;100933.22;4980900;28;20147;-48
2022/11/24 10:53:09;;;;;;;22.55;4.57;;;;;;;9.06;100.00;100925.84;4962190;28;20050;-48
2022/11/24 10:55:56;;;;;;;14.80;4.32;;;;;;;9.08;100.00;100931.03;4975530;28;20043;-50
2022/11/24 10:58:39;;;;;;;18.05;4.57;;;;;;;9.07;100.00;100929.41;4981755;28;20049;-51
2022/11/24 11:01:12;;;;;;;17.88;5.03;;;;;;;9.11;100.00;100923.16;4977263;28;20050;-53
2022/11/24 11:03:54;;;;;;;20.67;4.90;;;;;;;9.12;100.00;100926.72;4978286;28;20047;-51
2022/11/24 11:06:24;;;;;;;17.63;4.45;;;;;;;9.16;100.00;100927.84;4971417;28;20061;-50
2022/11/24 11:09:07;;;;;;;19.45;5.50;;;;;;;9.17;100.00;100921.34;4976698;28;20049;-53
2022/11/24 11:11:38;;;;;;;21.70;5.22;;;;;;;9.19;100.00;100930.06;4980525;28;20053;-50
2022/11/24 11:14:07;;;;;;;18.05;4.65;;;;;;;9.24;100.00;100926.56;4960834;28;20047;-51
2022/11/24 11:16:37;;;;;;;23.92;7.63;;;;;;;9.51;100.00;100929.28;4977181;28;20038;-49
2022/11/24 11:19:31;;;;;;;15.70;5.05;;;;;;;9.47;100.00;100930.88;4976936;28;20050;-50
2022/11/24 11:22:25;;;;;;;23.42;7.38;;;;;;;9.64;100.00;100930.75;4974166;28;20039;-50
2022/11/24 11:25:10;;;;;;;13.93;4.50;;;;;;;9.52;100.00;100928.19;4957432;28;20455;-50
2022/11/24 11:27:39;;;;;;;15.82;4.80;;;;;;;9.49;100.00;100926.00;4974793;28;20146;-50
2022/11/24 11:30:21;;;;;;;21.58;6.43;;;;;;;9.56;100.00;100929.31;4989125;28;20038;-52
2022/11/24 11:33:23;;;;;;;26.23;8.02;;;;;;;9.84;100.00;100924.63;4974852;28;20449;-51
2022/11/24 11:36:12;;;;;;;21.33;4.78;;;;;;;9.64;100.00;100917.94;4982048;28;20039;-52
2022/11/24 11:38:40;;;;;;;17.50;4.53;;;;;;;9.48;100.00;100916.19;4279038;28;10000629;-51
2022/11/24 11:41:18;;;;;;;19.80;4.90;;;;;;;9.41;100.00;100915.59;4970658;28;20058;-51
2022/11/24 11:43:47;;;;;;;16.88;5.05;;;;;;;9.38;100.00;100917.75;4971560;28;20490;-51
2022/11/24 11:46:15;;;;;;;14.30;4.30;;;;;;;9.41;100.00;100921.03;4965918;28;20097;-51